< < Back
Terminal Aerodrome Forecast


Current Version              Previous Versions:   1  2  3  4  5  6  7  8  9  

Terminal Aerodrome Forecast

646
FTUS44 KOHX 310526
TAFCSV
TAF
KCSV 310526Z 3106/0106 34004KT P6SM SKC=

Latest METAR

979
SAUS70 KWBC 312100 RRE
MTRCSV
METAR KCSV 312053Z AUTO 34007KT 10SM CLR 28/13 A3007 RMK AO2 SLP162
T02830133 58016


USA.gov is the U.S. government's official web portal to all federal, state and local government web resources and services.